Time;durP1;ratioP1;P1;durP2;ratioP2;P2;SDS_P1;SDS_P2;PMS_P1;PMS_P2;Temp;Humidity;BMP_temperature;BMP_pressure;BME280_temperature;BME280_humidity;BME280_pressure;Samples;Min_cycle;Max_cycle;Signal;HPM_P1;HPM_P2
2022/03/10 00:00:14;;;;;;;6.97;6.47;;;;;;;21.89;26.15;95130.47;6187318;28;103065;-76
2022/03/10 00:03:17;;;;;;;7.50;6.90;;;;;;;21.89;26.28;95135.78;6198918;28;102827;-77
2022/03/10 00:06:19;;;;;;;7.83;7.23;;;;;;;21.87;26.12;95136.09;6183044;28;103232;-78
2022/03/10 00:09:21;;;;;;;7.70;7.10;;;;;;;21.85;26.40;95135.59;6194394;28;103629;-77
2022/03/10 00:12:23;;;;;;;6.90;6.40;;;;;;;21.87;26.02;95130.78;6208950;28;103219;-76
2022/03/10 00:15:25;;;;;;;6.90;6.40;;;;;;;21.85;26.22;95129.50;6201662;28;103704;-76
2022/03/10 00:18:26;;;;;;;7.13;6.57;;;;;;;21.84;26.03;95126.06;6197265;28;103640;-76
2022/03/10 00:21:28;;;;;;;6.87;6.27;;;;;;;21.83;25.79;95124.44;6195146;28;103376;-76
2022/03/10 00:24:30;;;;;;;6.83;6.23;;;;;;;21.84;26.18;95128.72;6170394;28;103170;-76
2022/03/10 00:27:32;;;;;;;7.30;6.70;;;;;;;21.85;25.93;95132.16;6179761;28;104552;-76
2022/03/10 00:30:34;;;;;;;7.80;7.17;;;;;;;21.82;26.00;95122.88;6184542;28;103559;-76
2022/03/10 00:33:35;;;;;;;6.90;6.40;;;;;;;21.83;26.30;95129.75;6174291;28;102940;-75
2022/03/10 00:36:37;;;;;;;7.70;7.00;;;;;;;21.82;26.15;95130.84;6173570;28;107614;-76
2022/03/10 00:39:39;;;;;;;6.80;6.30;;;;;;;21.83;26.03;95127.09;6208966;28;103409;-76
2022/03/10 00:42:41;;;;;;;7.23;6.73;;;;;;;21.82;25.96;95119.44;6195137;28;103301;-75
2022/03/10 00:45:43;;;;;;;7.67;7.07;;;;;;;21.83;25.93;95123.66;6188506;28;103089;-76
2022/03/10 00:48:45;;;;;;;6.43;5.90;;;;;;;21.81;25.80;95113.31;6194422;28;102978;-76
2022/03/10 00:51:50;;;;;;;6.97;6.47;;;;;;;21.82;25.76;95108.78;6207417;28;103237;-76
2022/03/10 00:54:52;;;;;;;7.50;6.80;;;;;;;21.77;26.04;95104.38;6198906;28;102648;-77
2022/03/10 00:57:54;;;;;;;6.87;6.37;;;;;;;21.81;26.03;95107.22;6194311;28;103695;-77
2022/03/10 01:00:56;;;;;;;7.10;6.60;;;;;;;21.81;25.54;95104.56;6188951;28;105301;-76
2022/03/10 01:03:58;;;;;;;7.27;6.67;;;;;;;21.80;26.05;95111.75;6194726;28;103215;-76
2022/03/10 01:07:00;;;;;;;6.90;6.40;;;;;;;21.80;25.79;95116.28;6210821;28;103837;-76
2022/03/10 01:10:05;;;;;;;7.10;6.50;;;;;;;21.80;25.94;95111.75;6171076;28;103134;-75
2022/03/10 01:13:16;;;;;;;7.23;6.63;;;;;;;21.80;25.93;95111.75;6185928;28;103221;-76
2022/03/10 01:16:18;;;;;;;6.27;5.77;;;;;;;21.81;26.02;95112.53;6194970;28;104086;-74
2022/03/10 01:19:20;;;;;;;7.03;6.43;;;;;;;21.80;25.95;95106.44;6208318;28;102999;-75
2022/03/10 01:22:22;;;;;;;6.97;6.47;;;;;;;21.78;25.79;95108.59;6213578;28;103934;-75
2022/03/10 01:25:24;;;;;;;7.27;6.67;;;;;;;21.78;26.03;95105.94;6205314;28;103832;-75
2022/03/10 01:28:26;;;;;;;7.70;7.10;;;;;;;21.78;25.70;95094.50;6217104;28;103240;-77
2022/03/10 01:31:28;;;;;;;7.30;6.70;;;;;;;21.78;25.87;95097.97;6186694;28;104136;-75
2022/03/10 01:34:30;;;;;;;7.30;6.70;;;;;;;21.76;25.72;95094.81;6198940;28;106269;-74
2022/03/10 01:37:36;;;;;;;7.63;7.00;;;;;;;21.76;25.80;95100.13;6200588;28;103134;-74
2022/03/10 01:40:38;;;;;;;7.47;6.87;;;;;;;21.76;25.89;95108.09;6190513;28;103119;-76
2022/03/10 01:44:08;;;;;;;7.60;7.00;;;;;;;21.78;26.12;95103.28;6184228;28;105417;-75
2022/03/10 01:47:10;;;;;;;6.83;6.33;;;;;;;21.76;25.97;95094.81;6197040;28;103606;-76
2022/03/10 01:50:14;;;;;;;7.37;6.83;;;;;;;21.74;25.83;95089.00;6198918;28;103575;-77
2022/03/10 01:53:16;;;;;;;7.27;6.77;;;;;;;21.75;25.89;95097.75;6185994;28;103428;-76
2022/03/10 01:56:21;;;;;;;7.13;6.63;;;;;;;21.75;26.01;95097.75;6176783;28;104162;-76
2022/03/10 01:59:23;;;;;;;6.30;5.90;;;;;;;21.76;25.80;95094.81;6192726;28;104275;-76
2022/03/10 02:02:25;;;;;;;6.93;6.43;;;;;;;21.75;25.83;95095.09;6199539;28;103226;-75
2022/03/10 02:05:31;;;;;;;7.03;6.53;;;;;;;21.74;25.51;95102.28;6163555;28;103408;-75
2022/03/10 02:11:54;;;;;;;7.20;6.60;;;;;;;21.74;25.79;95104.97;6195774;28;103061;-76
2022/03/10 02:18:33;;;;;;;6.60;6.10;;;;;;;21.72;25.69;95109.78;6167369;28;103229;-76
2022/03/10 02:21:35;;;;;;;6.40;5.97;;;;;;;21.73;25.74;95098.06;6193909;28;103097;-75
2022/03/10 02:24:39;;;;;;;6.87;6.37;;;;;;;21.72;25.47;95104.47;6183062;28;103343;-75
2022/03/10 02:27:41;;;;;;;6.10;5.60;;;;;;;21.73;25.70;95107.91;6186199;28;103117;-74
2022/03/10 02:30:43;;;;;;;6.87;6.17;;;;;;;21.71;25.53;95113.53;6183521;28;103151;-75
2022/03/10 02:33:45;;;;;;;6.13;5.73;;;;;;;21.72;25.74;95117.75;6191719;28;103032;-76
2022/03/10 02:36:47;;;;;;;7.30;6.70;;;;;;;21.70;25.54;95117.28;6188428;28;102990;-76
2022/03/10 02:39:48;;;;;;;6.80;6.23;;;;;;;21.71;25.32;95113.53;6192496;28;102742;-75
2022/03/10 02:42:50;;;;;;;6.40;6.00;;;;;;;21.70;25.47;95117.28;6205004;28;103579;-76
2022/03/10 02:45:55;;;;;;;6.87;6.37;;;;;;;21.70;25.59;95117.28;6215530;28;103045;-76
2022/03/10 02:48:57;;;;;;;6.50;6.00;;;;;;;21.69;25.57;95121.00;6211837;28;103079;-76
2022/03/10 02:51:59;;;;;;;7.13;6.63;;;;;;;21.69;25.48;95123.69;6190143;28;103069;-77
2022/03/10 02:55:15;;;;;;;6.50;6.00;;;;;;;21.69;25.55;95123.69;6210131;28;102740;-76
2022/03/10 02:58:17;;;;;;;7.00;6.40;;;;;;;21.67;25.54;95123.19;6173201;28;105753;-76
2022/03/10 03:01:19;;;;;;;7.67;7.07;;;;;;;21.68;25.57;95127.41;6215693;28;103019;-76
2022/03/10 03:04:21;;;;;;;7.07;6.57;;;;;;;21.67;25.52;95123.19;6200405;28;103463;-76
2022/03/10 03:07:24;;;;;;;7.07;6.47;;;;;;;21.66;25.24;95126.91;6183688;28;104503;-76
2022/03/10 03:10:26;;;;;;;7.10;6.50;;;;;;;21.66;25.43;95126.91;6169673;28;105021;-75
2022/03/10 03:13:27;;;;;;;7.90;7.27;;;;;;;21.68;25.56;95129.28;6205697;28;103219;-76
2022/03/10 03:16:30;;;;;;;7.00;6.50;;;;;;;21.67;25.33;95133.00;6206322;28;103048;-76
2022/03/10 03:19:32;;;;;;;6.87;6.37;;;;;;;21.66;25.37;95137.53;6195585;28;103000;-76
2022/03/10 03:22:35;;;;;;;6.67;6.17;;;;;;;21.66;25.44;95139.41;6201154;28;105925;-76
2022/03/10 03:25:36;;;;;;;7.37;6.77;;;;;;;21.66;25.38;95140.19;6211100;28;105116;-78
2022/03/10 03:28:38;;;;;;;6.57;6.07;;;;;;;21.66;25.06;95148.16;6171668;28;103578;-75
2022/03/10 03:31:40;;;;;;;6.77;6.27;;;;;;;21.65;25.16;95140.50;6174787;28;105056;-76
2022/03/10 03:34:42;;;;;;;6.80;6.30;;;;;;;21.64;25.46;95142.34;6198300;28;103473;-76
2022/03/10 03:37:44;;;;;;;7.17;6.67;;;;;;;21.65;24.99;95140.50;6170207;28;103202;-76
2022/03/10 03:40:45;;;;;;;7.43;6.83;;;;;;;21.63;25.23;95143.44;6200423;28;104483;-76
2022/03/10 03:43:47;;;;;;;8.40;7.70;;;;;;;21.64;24.89;95155.66;6161466;28;103073;-76
2022/03/10 03:46:49;;;;;;;7.07;6.57;;;;;;;21.60;25.16;95154.66;6178959;28;103438;-76
2022/03/10 03:49:51;;;;;;;8.03;7.43;;;;;;;21.61;25.31;95159.69;6193306;28;103364;-76
2022/03/10 03:52:53;;;;;;;7.50;6.90;;;;;;;21.60;25.15;95157.31;6197308;28;103332;-76
2022/03/10 03:55:54;;;;;;;7.50;6.90;;;;;;;21.59;24.99;95159.19;6172403;28;103807;-76
2022/03/10 03:58:56;;;;;;;6.43;5.93;;;;;;;21.59;24.96;95158.41;6187215;28;104029;-75
2022/03/10 04:01:58;;;;;;;7.53;7.03;;;;;;;21.58;24.99;95162.94;6175443;28;103537;-75
2022/03/10 04:05:00;;;;;;;7.27;6.67;;;;;;;21.60;24.96;95176.72;6177794;28;103188;-77
2022/03/10 04:08:02;;;;;;;7.70;7.10;;;;;;;21.60;25.04;95181.25;6201814;28;103547;-77
2022/03/10 04:11:04;;;;;;;6.90;6.40;;;;;;;21.59;25.08;95185.78;6190873;28;103217;-76
2022/03/10 04:14:06;;;;;;;7.43;6.83;;;;;;;21.59;24.99;95187.66;6202358;28;103317;-77
2022/03/10 04:17:07;;;;;;;7.10;6.50;;;;;;;21.59;24.93;95185.00;6203880;28;106158;-76
2022/03/10 04:20:13;;;;;;;7.63;7.03;;;;;;;21.56;24.85;95185.59;6185115;28;103101;-76
2022/03/10 04:23:15;;;;;;;7.37;6.67;;;;;;;21.58;24.94;95194.06;6196190;28;102719;-74
2022/03/10 04:26:17;;;;;;;8.10;7.50;;;;;;;21.59;26.55;95187.66;6185018;28;104204;-75
2022/03/10 04:29:19;;;;;;;7.80;7.10;;;;;;;21.58;26.57;95188.75;6190068;28;103117;-74
2022/03/10 04:32:21;;;;;;;8.50;7.80;;;;;;;21.61;26.31;95193.47;6202718;28;103123;-75
2022/03/10 04:35:22;;;;;;;8.80;8.10;;;;;;;21.62;26.00;95201.16;6202190;28;103308;-76
2022/03/10 04:38:24;;;;;;;9.20;8.50;;;;;;;21.77;27.87;95205.41;6191180;28;103262;-77
2022/03/10 04:41:26;;;;;;;8.50;7.70;;;;;;;21.91;27.98;95208.09;6204771;28;103955;-79
2022/03/10 04:44:28;;;;;;;9.90;8.13;;;;;;;22.00;27.78;95205.53;6176491;28;103434;-76
2022/03/10 04:47:30;;;;;;;8.87;8.03;;;;;;;22.03;27.56;95205.75;6173600;28;103101;-75
2022/03/10 04:50:33;;;;;;;10.80;9.37;;;;;;;22.05;27.82;95208.16;6208431;28;104261;-77
2022/03/10 04:53:34;;;;;;;9.37;8.57;;;;;;;22.12;28.10;95214.66;6193006;28;103068;-74
2022/03/10 04:56:36;;;;;;;9.13;8.33;;;;;;;22.24;28.02;95219.50;6164931;28;103358;-75
2022/03/10 04:59:38;;;;;;;9.50;8.80;;;;;;;22.29;28.29;95227.38;6177818;28;106057;-76
2022/03/10 05:02:40;;;;;;;10.17;9.20;;;;;;;22.24;28.08;95232.00;6168115;28;103657;-77
2022/03/10 05:05:43;;;;;;;9.87;9.00;;;;;;;22.20;27.40;95234.47;6173435;28;103203;-76
2022/03/10 05:08:45;;;;;;;10.23;9.33;;;;;;;22.18;27.82;95231.34;6205497;28;102817;-75
2022/03/10 05:11:46;;;;;;;11.60;10.43;;;;;;;22.21;27.80;95230.75;6175181;28;104099;-76
2022/03/10 05:14:48;;;;;;;10.57;9.73;;;;;;;22.35;28.17;95249.38;6193072;28;103272;-75
2022/03/10 05:17:51;;;;;;;11.73;10.80;;;;;;;22.40;28.97;95255.38;6188621;28;103949;-76
2022/03/10 05:20:52;;;;;;;11.13;10.03;;;;;;;22.45;28.60;95254.50;6171285;28;103546;-75
2022/03/10 05:23:54;;;;;;;11.67;10.67;;;;;;;22.29;27.85;95264.63;6188879;28;102736;-73
2022/03/10 05:26:57;;;;;;;11.90;10.90;;;;;;;22.09;27.74;95275.66;6186585;28;103690;-73
2022/03/10 05:29:59;;;;;;;14.67;11.60;;;;;;;21.99;27.61;95273.13;6172118;28;103217;-75
2022/03/10 05:33:01;;;;;;;12.67;11.57;;;;;;;21.90;27.63;95271.16;6183954;28;102998;-76
2022/03/10 05:36:03;;;;;;;12.30;11.30;;;;;;;21.86;27.25;95280.03;6171869;28;103455;-75
2022/03/10 05:39:05;;;;;;;12.80;11.60;;;;;;;21.84;27.37;95282.19;6190846;28;103307;-72
2022/03/10 05:42:07;;;;;;;12.10;11.10;;;;;;;21.82;27.41;95289.63;6172691;28;102981;-75
2022/03/10 05:45:10;;;;;;;15.30;11.10;;;;;;;21.80;26.83;95287.28;6186397;28;104527;-74
2022/03/10 05:48:12;;;;;;;13.00;11.90;;;;;;;21.81;27.15;95299.50;6189070;28;103133;-72
2022/03/10 05:51:14;;;;;;;13.17;12.07;;;;;;;21.78;26.75;95294.75;6187768;28;102565;-76
2022/03/10 05:54:18;;;;;;;12.90;11.80;;;;;;;21.79;26.89;95303.53;6183063;28;102840;-75
2022/03/10 05:57:20;;;;;;;13.43;12.20;;;;;;;21.77;26.64;95301.16;6187432;28;103377;-75
2022/03/10 06:00:23;;;;;;;12.10;11.07;;;;;;;21.75;26.71;95305.97;6188089;28;103543;-75
2022/03/10 06:03:25;;;;;;;13.50;12.33;;;;;;;21.73;26.41;95304.69;6188584;28;103385;-73
2022/03/10 06:06:27;;;;;;;12.93;11.93;;;;;;;21.72;26.28;95308.44;6166371;28;103530;-75
2022/03/10 06:09:29;;;;;;;12.10;11.10;;;;;;;21.73;26.09;95302.03;6170620;28;103084;-74
2022/03/10 06:12:31;;;;;;;12.90;11.77;;;;;;;21.78;25.91;95308.06;6172153;28;103469;-75
2022/03/10 06:15:33;;;;;;;12.53;11.43;;;;;;;21.88;25.50;95313.22;6170934;28;103024;-74
2022/03/10 06:18:35;;;;;;;11.80;10.70;;;;;;;21.96;25.63;95310.97;6184233;28;103437;-74
2022/03/10 06:21:38;;;;;;;11.33;10.30;;;;;;;22.14;25.66;95318.94;6189274;28;106132;-75
2022/03/10 06:24:41;;;;;;;11.63;10.53;;;;;;;22.32;25.21;95319.16;6176874;28;103327;-76
2022/03/10 06:27:43;;;;;;;12.10;11.10;;;;;;;22.40;25.31;95327.25;6183789;28;103130;-74
2022/03/10 06:30:45;;;;;;;11.07;10.17;;;;;;;22.48;24.87;95328.44;6189463;28;102670;-75
2022/03/10 06:33:50;;;;;;;11.57;10.67;;;;;;;22.58;24.94;95330.94;6171238;28;102921;-74
2022/03/10 06:36:58;;;;;;;10.73;9.93;;;;;;;22.69;24.65;95335.00;6187113;28;103517;-75
2022/03/10 06:40:00;;;;;;;10.70;9.80;;;;;;;22.76;24.64;95339.91;6184616;28;104136;-74
2022/03/10 06:43:01;;;;;;;10.93;10.03;;;;;;;22.85;24.70;95351.50;6172491;28;103353;-77
2022/03/10 06:46:04;;;;;;;10.83;9.93;;;;;;;22.96;24.21;95347.53;6171405;28;103276;-75
2022/03/10 06:49:06;;;;;;;9.90;9.10;;;;;;;23.00;24.59;95353.06;6185488;28;103008;-76
2022/03/10 06:52:08;;;;;;;9.83;9.03;;;;;;;23.07;23.97;95356.91;6187488;28;103823;-75
2022/03/10 06:55:10;;;;;;;10.20;9.30;;;;;;;23.14;24.06;95363.72;6189712;28;103851;-75
2022/03/10 06:58:12;;;;;;;9.47;8.70;;;;;;;23.21;23.94;95361.44;6192960;28;103298;-75
2022/03/10 07:01:14;;;;;;;9.13;8.43;;;;;;;23.23;24.17;95356.59;6170895;28;103198;-74
2022/03/10 07:04:16;;;;;;;9.40;8.60;;;;;;;23.29;23.96;95366.84;6193087;28;103590;-75
2022/03/10 07:07:18;;;;;;;9.43;8.67;;;;;;;23.36;23.98;95369.13;6194700;28;106100;-74
2022/03/10 07:10:22;;;;;;;9.23;8.47;;;;;;;23.45;24.11;95369.19;6193541;28;103092;-73
2022/03/10 07:13:23;;;;;;;9.00;8.30;;;;;;;23.48;23.59;95371.25;6189577;28;103203;-75
2022/03/10 07:16:29;;;;;;;8.50;7.80;;;;;;;23.53;24.02;95368.50;6177533;28;103387;-74
2022/03/10 07:19:31;;;;;;;8.90;8.10;;;;;;;23.55;23.48;95372.44;6176635;28;103258;-75
2022/03/10 07:22:33;;;;;;;8.10;7.50;;;;;;;23.62;23.80;95377.38;6172944;28;103375;-78
2022/03/10 07:25:35;;;;;;;7.93;7.33;;;;;;;23.66;23.53;95376.47;6153267;28;103200;-77
2022/03/10 07:28:38;;;;;;;9.00;8.30;;;;;;;23.67;23.70;95372.72;6168679;28;102991;-77
2022/03/10 07:31:39;;;;;;;8.40;7.70;;;;;;;23.75;23.71;95376.56;6168558;28;103255;-75
2022/03/10 07:34:41;;;;;;;8.03;7.33;;;;;;;23.76;23.68;95380.81;6162420;28;103177;-76
2022/03/10 07:37:44;;;;;;;7.90;7.30;;;;;;;23.78;23.99;95380.50;6168293;28;103358;-75
2022/03/10 07:40:46;;;;;;;7.33;6.83;;;;;;;23.82;23.58;95384.13;6166816;28;103173;-77
2022/03/10 07:43:49;;;;;;;7.60;7.00;;;;;;;23.82;23.40;95381.47;6169675;28;103354;-76
2022/03/10 07:46:51;;;;;;;7.13;6.53;;;;;;;23.86;23.36;95383.25;6146826;28;103556;-74
2022/03/10 07:49:53;;;;;;;6.93;6.33;;;;;;;23.91;23.47;95390.34;6168984;28;106542;-76
2022/03/10 07:52:54;;;;;;;7.33;6.73;;;;;;;23.92;23.44;95392.72;6150460;28;104253;-76
2022/03/10 07:55:56;;;;;;;6.80;6.30;;;;;;;23.93;23.32;95391.63;6163070;28;102917;-75
2022/03/10 07:58:58;;;;;;;7.27;6.57;;;;;;;23.97;23.64;95400.59;6150841;28;103633;-74
2022/03/10 08:02:00;;;;;;;7.13;6.63;;;;;;;23.99;23.16;95394.94;6150224;28;103465;-74
2022/03/10 08:05:03;;;;;;;6.60;6.10;;;;;;;23.98;23.51;95393.38;6168701;28;104347;-76
2022/03/10 08:08:05;;;;;;;6.90;6.40;;;;;;;23.89;23.29;95397.88;6145202;28;102981;-76
2022/03/10 08:11:08;;;;;;;5.90;5.50;;;;;;;23.69;23.66;95396.44;6168040;28;103072;-75
2022/03/10 08:14:10;;;;;;;5.90;5.50;;;;;;;23.55;23.51;95401.78;6169233;28;103192;-76
2022/03/10 08:17:12;;;;;;;6.57;6.07;;;;;;;23.42;23.49;95407.91;6147200;28;103118;-75
2022/03/10 08:20:14;;;;;;;6.17;5.70;;;;;;;23.29;23.74;95401.50;6168131;28;102965;-76
2022/03/10 08:23:18;;;;;;;5.80;5.40;;;;;;;23.20;23.80;95405.97;6168016;28;105083;-75
2022/03/10 08:26:21;;;;;;;5.67;5.20;;;;;;;23.10;23.91;95404.28;6168211;28;103264;-77
2022/03/10 08:29:23;;;;;;;6.40;5.90;;;;;;;23.03;24.06;95411.09;6147444;28;103146;-75
2022/03/10 08:32:26;;;;;;;7.13;6.53;;;;;;;23.01;24.58;95408.75;6166044;28;103324;-75
2022/03/10 08:35:28;;;;;;;5.50;5.10;;;;;;;22.98;25.10;95406.66;6150027;28;105813;-76
2022/03/10 08:38:30;;;;;;;5.57;5.07;;;;;;;22.96;24.91;95408.81;6149539;28;103149;-74
2022/03/10 08:41:32;;;;;;;5.70;5.30;;;;;;;22.90;25.01;95410.00;6146571;28;103351;-74
2022/03/10 08:44:33;;;;;;;6.43;5.70;;;;;;;22.81;24.49;95407.19;6168402;28;103368;-77
2022/03/10 08:47:35;;;;;;;8.80;8.10;;;;;;;22.71;23.92;95414.59;6170890;28;102723;-78
2022/03/10 08:50:38;;;;;;;9.80;9.00;;;;;;;22.60;24.50;95411.31;6152533;28;107271;-76
2022/03/10 08:53:40;;;;;;;8.17;7.57;;;;;;;22.58;24.35;95410.03;6155045;28;103028;-77
2022/03/10 08:56:42;;;;;;;9.83;9.00;;;;;;;22.73;24.11;95409.75;6170546;28;104059;-77
2022/03/10 08:59:45;;;;;;;11.30;10.40;;;;;;;22.78;23.91;95407.00;6152708;28;103026;-76
2022/03/10 09:02:47;;;;;;;13.83;12.70;;;;;;;22.83;24.25;95393.59;6167300;28;103030;-77
2022/03/10 09:05:49;;;;;;;13.93;12.83;;;;;;;22.83;24.25;95395.47;6154844;28;103451;-77
2022/03/10 09:08:52;;;;;;;18.60;17.13;;;;;;;22.87;23.78;95399.16;6172139;28;102745;-76
2022/03/10 09:11:54;;;;;;;20.20;18.63;;;;;;;22.92;23.78;95401.72;6171172;28;103066;-75
2022/03/10 09:14:56;;;;;;;22.80;21.00;;;;;;;22.80;23.75;95396.84;6149047;28;103177;-75
2022/03/10 09:18:02;;;;;;;25.20;23.13;;;;;;;22.73;24.06;95394.56;6171906;28;103398;-76
2022/03/10 09:21:05;;;;;;;23.40;21.50;;;;;;;22.73;24.03;95388.47;6166379;28;105163;-76
2022/03/10 09:24:07;;;;;;;23.10;21.30;;;;;;;22.79;23.63;95389.94;6157361;28;103927;-72
2022/03/10 09:27:09;;;;;;;22.60;20.80;;;;;;;22.81;23.93;95385.88;6193187;28;102748;-75
2022/03/10 09:30:12;;;;;;;22.47;20.67;;;;;;;22.78;23.89;95386.47;6172635;28;105771;-75
2022/03/10 09:33:14;;;;;;;22.50;20.67;;;;;;;22.73;23.54;95388.47;6190251;28;102978;-73
2022/03/10 09:36:16;;;;;;;20.70;19.00;;;;;;;22.75;23.93;95383.63;6184157;28;102709;-75
2022/03/10 09:39:18;;;;;;;20.00;18.40;;;;;;;22.69;23.99;95382.94;6191053;28;103573;-76
2022/03/10 09:42:26;;;;;;;18.80;17.37;;;;;;;22.65;24.04;95383.78;6191121;28;104038;-75
2022/03/10 09:45:30;;;;;;;20.23;18.73;;;;;;;22.62;23.68;95389.72;6188395;28;103690;-74
2022/03/10 09:48:33;;;;;;;18.60;17.10;;;;;;;22.58;24.09;95391.38;6174227;28;103103;-75
2022/03/10 09:51:35;;;;;;;18.17;16.77;;;;;;;22.55;23.83;95389.31;6192255;28;103339;-75
2022/03/10 09:54:37;;;;;;;17.90;16.43;;;;;;;22.51;23.88;95395.25;6174873;28;103590;-77
2022/03/10 09:57:41;;;;;;;16.70;15.40;;;;;;;22.49;23.74;95396.59;6186525;28;103264;-75
2022/03/10 10:00:45;;;;;;;17.80;16.40;;;;;;;22.44;23.54;95394.03;6172362;28;103312;-76
2022/03/10 10:03:47;;;;;;;16.80;15.50;;;;;;;22.43;23.87;95395.09;6192223;28;103366;-77
2022/03/10 10:07:01;;;;;;;17.63;16.23;;;;;;;22.41;23.78;95398.06;6174859;28;103315;-77
2022/03/10 10:10:04;;;;;;;15.10;13.90;;;;;;;22.37;23.87;95397.06;6169251;28;103196;-77
2022/03/10 10:13:06;;;;;;;15.20;14.07;;;;;;;22.37;23.50;95391.75;6191495;28;103138;-75
2022/03/10 10:16:10;;;;;;;15.83;14.67;;;;;;;22.37;23.58;95397.06;6173408;28;103052;-76
2022/03/10 10:19:17;;;;;;;14.43;13.27;;;;;;;22.38;23.64;95400.53;6187307;28;103817;-78
2022/03/10 10:22:23;;;;;;;14.20;13.03;;;;;;;22.39;23.48;95397.56;6174789;28;103213;-77
2022/03/10 10:25:25;;;;;;;13.70;12.60;;;;;;;22.40;23.73;95401.81;6173878;28;103217;-77
2022/03/10 10:28:41;;;;;;;13.33;12.27;;;;;;;22.38;23.47;95409.31;6171438;28;103766;-77
2022/03/10 10:31:43;;;;;;;13.20;12.20;;;;;;;22.37;23.44;95415.72;6185491;28;103716;-77
2022/03/10 10:35:11;;;;;;;13.17;12.17;;;;;;;22.35;23.63;95415.22;6190257;28;103019;-77
2022/03/10 10:38:30;;;;;;;12.17;11.27;;;;;;;22.34;23.45;95410.97;6171411;28;104038;-76
2022/03/10 10:41:33;;;;;;;12.23;11.33;;;;;;;22.33;23.61;95409.38;6186245;28;103687;-75
2022/03/10 10:44:35;;;;;;;11.27;10.37;;;;;;;22.31;23.59;95414.19;6189321;28;103045;-76
2022/03/10 10:48:07;;;;;;;11.07;10.27;;;;;;;22.30;23.53;95412.63;6171084;28;103044;-76
2022/03/10 10:51:11;;;;;;;11.10;10.30;;;;;;;22.29;23.67;95412.91;6188830;28;102850;-76
2022/03/10 10:54:24;;;;;;;11.27;10.37;;;;;;;22.27;23.52;95412.41;6185196;28;104496;-75
2022/03/10 10:57:26;;;;;;;11.10;10.20;;;;;;;22.21;23.81;95406.38;6172402;28;103049;-75
2022/03/10 11:00:41;;;;;;;11.40;10.50;;;;;;;22.23;24.00;95406.09;6187083;28;102816;-76
2022/03/10 11:03:43;;;;;;;11.43;10.63;;;;;;;22.17;24.45;95394.72;6167054;28;106297;-77
2022/03/10 11:06:45;;;;;;;11.60;10.70;;;;;;;22.14;24.27;95405.94;6171482;28;103624;-76
2022/03/10 11:09:49;;;;;;;10.70;9.70;;;;;;;22.12;24.27;95408.13;6171941;28;106455;-78
2022/03/10 11:12:51;;;;;;;10.97;10.07;;;;;;;22.11;24.87;95401.22;6171119;28;103116;-75
2022/03/10 11:15:56;;;;;;;10.70;9.80;;;;;;;22.07;24.34;95394.91;6184479;28;103336;-75
2022/03/10 11:18:59;;;;;;;9.90;9.20;;;;;;;22.07;24.18;95400.22;6171777;28;102955;-76
2022/03/10 11:22:06;;;;;;;10.37;9.47;;;;;;;22.09;24.18;95398.84;6171496;28;104462;-76
2022/03/10 11:25:33;;;;;;;10.20;9.40;;;;;;;22.13;24.22;95393.72;6159562;28;102856;-74
2022/03/10 11:28:46;;;;;;;9.77;8.97;;;;;;;22.16;23.92;95395.81;6163507;28;103542;-76
2022/03/10 11:31:49;;;;;;;9.00;8.30;;;;;;;22.19;24.03;95397.91;6164273;28;103479;-75
2022/03/10 11:35:01;;;;;;;8.83;8.03;;;;;;;22.23;23.85;95400.78;6162662;28;103124;-76
2022/03/10 11:38:03;;;;;;;9.20;8.50;;;;;;;22.24;23.75;95397.03;6161203;28;102692;-75
2022/03/10 11:41:05;;;;;;;8.17;7.57;;;;;;;22.23;23.80;95395.44;6166623;28;103150;-76
2022/03/10 11:44:08;;;;;;;8.40;7.80;;;;;;;22.22;23.61;95405.31;6169665;28;103203;-75
2022/03/10 11:47:15;;;;;;;8.17;7.47;;;;;;;22.20;23.85;95402.16;6167068;28;106574;-75
2022/03/10 11:50:20;;;;;;;8.10;7.50;;;;;;;22.21;23.63;95414.38;6169318;28;104257;-75
2022/03/10 11:53:22;;;;;;;7.83;7.23;;;;;;;22.18;23.70;95407.75;6170257;28;103259;-75
2022/03/10 11:56:50;;;;;;;8.57;7.87;;;;;;;22.17;23.65;95413.34;6169260;28;103266;-76
2022/03/10 11:59:52;;;;;;;8.43;7.73;;;;;;;22.15;23.83;95404.88;6163475;28;106566;-74
2022/03/10 12:02:58;;;;;;;8.53;7.83;;;;;;;22.13;23.37;95409.69;6166394;28;106348;-75
2022/03/10 12:06:08;;;;;;;7.20;6.60;;;;;;;22.10;23.81;95408.41;6166828;28;103167;-77
2022/03/10 12:09:34;;;;;;;7.50;6.90;;;;;;;22.08;23.62;95412.44;6164055;28;103716;-76
2022/03/10 12:12:38;;;;;;;7.17;6.57;;;;;;;22.08;23.69;95409.78;6167149;28;103211;-75
2022/03/10 12:15:54;;;;;;;7.50;6.90;;;;;;;22.06;23.98;95412.75;6166462;28;103266;-76
2022/03/10 12:18:59;;;;;;;7.00;6.40;;;;;;;22.06;23.75;95409.28;6167067;28;103055;-76
2022/03/10 12:22:01;;;;;;;7.07;6.57;;;;;;;22.03;23.82;95407.19;6162277;28;103001;-77
2022/03/10 12:25:22;;;;;;;6.30;5.70;;;;;;;22.03;23.66;95410.63;6168717;28;104119;-77
2022/03/10 12:28:30;;;;;;;6.57;6.07;;;;;;;22.03;23.64;95405.31;6166996;28;103894;-75
2022/03/10 12:31:35;;;;;;;6.20;5.70;;;;;;;22.03;23.70;95410.63;6161529;28;104130;-76
2022/03/10 12:34:38;;;;;;;6.90;6.30;;;;;;;22.03;23.66;95412.50;6166322;28;105952;-75
2022/03/10 12:37:46;;;;;;;6.67;6.17;;;;;;;22.02;24.36;95413.59;6166149;28;103578;-76
2022/03/10 12:40:50;;;;;;;6.80;6.30;;;;;;;22.01;23.76;95412.00;6148873;28;103041;-76
2022/03/10 12:43:56;;;;;;;6.03;5.63;;;;;;;22.00;23.60;95415.72;6162402;28;105869;-77
2022/03/10 12:47:07;;;;;;;6.20;5.70;;;;;;;21.99;23.53;95422.13;6166090;28;103080;-75
2022/03/10 12:50:11;;;;;;;5.20;4.80;;;;;;;21.98;23.51;95437.28;6165793;28;103696;-76
2022/03/10 12:53:15;;;;;;;5.67;5.27;;;;;;;21.96;23.64;95433.34;6161109;28;104557;-77
2022/03/10 12:56:18;;;;;;;6.10;5.60;;;;;;;21.98;23.75;95436.50;6167857;28;105225;-75
2022/03/10 12:59:28;;;;;;;6.60;6.10;;;;;;;21.96;23.61;95428.03;6165638;28;103434;-75
2022/03/10 13:02:37;;;;;;;6.43;5.93;;;;;;;21.96;23.46;95433.34;6166508;28;103244;-76
2022/03/10 13:05:39;;;;;;;6.37;5.87;;;;;;;;;;6160566;28;102751;-77
2022/03/10 13:08:55;;;;;;;5.60;5.10;;;;;;;21.96;23.61;95433.34;6165992;28;103143;-75
2022/03/10 13:11:58;;;;;;;6.03;5.53;;;;;;;21.97;23.53;95429.59;6165895;28;103145;-76
2022/03/10 13:15:02;;;;;;;5.67;5.27;;;;;;;21.96;23.78;95428.03;6178407;28;103813;-76
2022/03/10 13:18:06;;;;;;;5.47;5.07;;;;;;;21.93;23.23;95440.81;6174003;28;103631;-75
2022/03/10 13:21:09;;;;;;;5.40;5.00;;;;;;;21.90;23.12;95446.72;6191667;28;103402;-76
2022/03/10 13:24:31;;;;;;;5.20;4.80;;;;;;;21.89;23.54;95461.09;6173178;28;103266;-75
2022/03/10 13:27:34;;;;;;;5.43;5.03;;;;;;;21.87;23.51;95452.63;6187457;28;103436;-75
2022/03/10 13:30:37;;;;;;;5.50;5.10;;;;;;;21.87;23.43;95463.25;6174025;28;103617;-75
2022/03/10 13:33:39;;;;;;;4.87;4.50;;;;;;;21.86;23.58;95455.56;6189369;28;102798;-75
2022/03/10 13:36:41;;;;;;;5.20;4.80;;;;;;;21.86;23.38;95456.38;6185970;28;103493;-75
2022/03/10 13:39:45;;;;;;;5.13;4.80;;;;;;;21.85;23.35;95451.34;6190781;28;104529;-75
2022/03/10 13:42:52;;;;;;;5.23;4.83;;;;;;;21.85;23.65;95454.00;6173666;28;103544;-75
2022/03/10 13:45:54;;;;;;;5.03;4.63;;;;;;;21.82;23.25;95455.34;6190758;28;103375;-75
2022/03/10 13:48:56;;;;;;;5.10;4.70;;;;;;;21.83;23.40;95462.22;6185806;28;102714;-75
2022/03/10 13:51:58;;;;;;;4.90;4.60;;;;;;;21.82;23.49;95458.00;6190694;28;102662;-77
2022/03/10 13:55:11;;;;;;;4.90;4.50;;;;;;;21.83;23.53;95461.44;6190113;28;103020;-75
2022/03/10 13:58:13;;;;;;;5.20;4.80;;;;;;;21.82;23.36;95460.66;6173167;28;103281;-75
2022/03/10 14:01:15;;;;;;;4.73;4.43;;;;;;;21.81;23.45;95453.75;6168369;28;103381;-76
2022/03/10 14:04:17;;;;;;;4.90;4.50;;;;;;;21.83;23.38;95453.47;6190694;28;104655;-75
2022/03/10 14:07:19;;;;;;;5.13;4.80;;;;;;;21.81;23.44;95455.63;6189876;28;103211;-76
2022/03/10 14:10:29;;;;;;;4.80;4.43;;;;;;;21.82;23.33;95465.97;6184804;28;103046;-77
2022/03/10 14:13:37;;;;;;;4.27;3.97;;;;;;;21.77;23.15;95458.06;6191078;28;103320;-76
2022/03/10 14:16:52;;;;;;;5.00;4.60;;;;;;;21.78;23.26;95470.28;6190340;28;103167;-77